sensor_id;sensor_type;location;lat;lon;timestamp;P1;durP1;ratioP1;P2;durP2;ratioP2
29730;SDS011;16639;51.488;0.152;2022-12-07T00:01:17;32.08;;;11.00;;
29730;SDS011;16639;51.488;0.152;2022-12-07T00:03:53;25.80;;;11.50;;
29730;SDS011;16639;51.488;0.152;2022-12-07T00:06:27;20.33;;;11.00;;
29730;SDS011;16639;51.488;0.152;2022-12-07T00:08:55;21.75;;;9.43;;
29730;SDS011;16639;51.488;0.152;2022-12-07T00:11:23;35.33;;;10.57;;
29730;SDS011;16639;51.488;0.152;2022-12-07T00:13:52;25.25;;;11.77;;
29730;SDS011;16639;51.488;0.152;2022-12-07T00:16:21;27.02;;;10.40;;
29730;SDS011;16639;51.488;0.152;2022-12-07T00:18:49;32.20;;;10.82;;
29730;SDS011;16639;51.488;0.152;2022-12-07T00:21:21;116.15;;;19.75;;
29730;SDS011;16639;51.488;0.152;2022-12-07T00:23:53;23.50;;;12.00;;
29730;SDS011;16639;51.488;0.152;2022-12-07T00:28:54;24.75;;;10.88;;
29730;SDS011;16639;51.488;0.152;2022-12-07T00:31:26;27.67;;;10.55;;
29730;SDS011;16639;51.488;0.152;2022-12-07T00:33:57;25.10;;;11.30;;
29730;SDS011;16639;51.488;0.152;2022-12-07T00:36:25;20.30;;;9.88;;
29730;SDS011;16639;51.488;0.152;2022-12-07T00:38:53;23.60;;;11.60;;
29730;SDS011;16639;51.488;0.152;2022-12-07T00:41:24;21.67;;;11.38;;
29730;SDS011;16639;51.488;0.152;2022-12-07T00:43:52;27.27;;;12.18;;
29730;SDS011;16639;51.488;0.152;2022-12-07T00:46:20;28.05;;;12.20;;
29730;SDS011;16639;51.488;0.152;2022-12-07T00:48:49;31.30;;;11.35;;
29730;SDS011;16639;51.488;0.152;2022-12-07T00:51:18;23.98;;;11.40;;
29730;SDS011;16639;51.488;0.152;2022-12-07T00:53:47;27.38;;;10.30;;
29730;SDS011;16639;51.488;0.152;2022-12-07T00:56:16;26.92;;;11.50;;
29730;SDS011;16639;51.488;0.152;2022-12-07T00:58:52;21.42;;;10.82;;
29730;SDS011;16639;51.488;0.152;2022-12-07T01:01:21;24.88;;;12.07;;
29730;SDS011;16639;51.488;0.152;2022-12-07T01:03:49;16.88;;;10.02;;
29730;SDS011;16639;51.488;0.152;2022-12-07T01:06:17;23.45;;;12.95;;
29730;SDS011;16639;51.488;0.152;2022-12-07T01:08:49;22.08;;;11.80;;
29730;SDS011;16639;51.488;0.152;2022-12-07T01:11:18;46.42;;;13.85;;
29730;SDS011;16639;51.488;0.152;2022-12-07T01:13:51;122.68;;;19.83;;
29730;SDS011;16639;51.488;0.152;2022-12-07T01:16:20;28.17;;;12.57;;
29730;SDS011;16639;51.488;0.152;2022-12-07T01:18:49;26.95;;;12.10;;
29730;SDS011;16639;51.488;0.152;2022-12-07T01:21:22;20.42;;;10.90;;
29730;SDS011;16639;51.488;0.152;2022-12-07T01:23:51;27.63;;;11.75;;
29730;SDS011;16639;51.488;0.152;2022-12-07T01:26:20;18.67;;;11.00;;
29730;SDS011;16639;51.488;0.152;2022-12-07T01:28:49;30.55;;;11.05;;
29730;SDS011;16639;51.488;0.152;2022-12-07T01:31:18;22.17;;;11.45;;
29730;SDS011;16639;51.488;0.152;2022-12-07T01:33:48;25.27;;;10.93;;
29730;SDS011;16639;51.488;0.152;2022-12-07T01:36:23;27.88;;;11.73;;
29730;SDS011;16639;51.488;0.152;2022-12-07T01:38:55;21.45;;;11.32;;
29730;SDS011;16639;51.488;0.152;2022-12-07T01:41:26;22.42;;;11.07;;
29730;SDS011;16639;51.488;0.152;2022-12-07T01:46:35;25.48;;;10.73;;
29730;SDS011;16639;51.488;0.152;2022-12-07T01:49:03;24.67;;;11.70;;
29730;SDS011;16639;51.488;0.152;2022-12-07T01:51:37;23.73;;;11.73;;
29730;SDS011;16639;51.488;0.152;2022-12-07T01:54:07;26.80;;;11.73;;
29730;SDS011;16639;51.488;0.152;2022-12-07T01:56:36;25.35;;;11.38;;
29730;SDS011;16639;51.488;0.152;2022-12-07T01:59:06;30.30;;;13.40;;
29730;SDS011;16639;51.488;0.152;2022-12-07T02:01:34;20.85;;;12.20;;
29730;SDS011;16639;51.488;0.152;2022-12-07T02:04:02;32.72;;;11.68;;
29730;SDS011;16639;51.488;0.152;2022-12-07T02:06:30;25.13;;;11.75;;
29730;SDS011;16639;51.488;0.152;2022-12-07T02:08:57;24.02;;;12.18;;
29730;SDS011;16639;51.488;0.152;2022-12-07T02:11:25;28.75;;;11.60;;
29730;SDS011;16639;51.488;0.152;2022-12-07T02:13:52;20.88;;;11.77;;
29730;SDS011;16639;51.488;0.152;2022-12-07T02:25:14;23.92;;;12.10;;
29730;SDS011;16639;51.488;0.152;2022-12-07T02:30:48;32.15;;;11.68;;
29730;SDS011;16639;51.488;0.152;2022-12-07T02:35:59;21.90;;;11.60;;
29730;SDS011;16639;51.488;0.152;2022-12-07T02:38:45;23.20;;;10.20;;
29730;SDS011;16639;51.488;0.152;2022-12-07T02:41:20;26.05;;;11.98;;
29730;SDS011;16639;51.488;0.152;2022-12-07T02:43:52;28.05;;;13.02;;
29730;SDS011;16639;51.488;0.152;2022-12-07T02:46:32;25.73;;;12.35;;
29730;SDS011;16639;51.488;0.152;2022-12-07T02:49:02;22.83;;;11.30;;
29730;SDS011;16639;51.488;0.152;2022-12-07T02:51:31;29.10;;;12.23;;
29730;SDS011;16639;51.488;0.152;2022-12-07T02:53:59;27.80;;;12.73;;
29730;SDS011;16639;51.488;0.152;2022-12-07T02:56:30;25.17;;;12.32;;
29730;SDS011;16639;51.488;0.152;2022-12-07T03:16:05;26.98;;;14.93;;
29730;SDS011;16639;51.488;0.152;2022-12-07T03:18:49;24.13;;;12.93;;
29730;SDS011;16639;51.488;0.152;2022-12-07T03:22:05;34.20;;;14.73;;
29730;SDS011;16639;51.488;0.152;2022-12-07T03:24:27;32.57;;;14.17;;
29730;SDS011;16639;51.488;0.152;2022-12-07T03:27:05;28.77;;;14.50;;
29730;SDS011;16639;51.488;0.152;2022-12-07T03:29:38;31.98;;;14.57;;
29730;SDS011;16639;51.488;0.152;2022-12-07T03:32:15;31.40;;;14.57;;
29730;SDS011;16639;51.488;0.152;2022-12-07T03:42:59;23.80;;;12.73;;
29730;SDS011;16639;51.488;0.152;2022-12-07T03:45:44;32.25;;;14.93;;
29730;SDS011;16639;51.488;0.152;2022-12-07T03:53:58;26.92;;;14.60;;
29730;SDS011;16639;51.488;0.152;2022-12-07T03:56:32;21.88;;;12.30;;
29730;SDS011;16639;51.488;0.152;2022-12-07T03:59:00;34.10;;;14.07;;
29730;SDS011;16639;51.488;0.152;2022-12-07T04:01:27;24.73;;;12.93;;
29730;SDS011;16639;51.488;0.152;2022-12-07T04:03:55;27.08;;;14.27;;
29730;SDS011;16639;51.488;0.152;2022-12-07T04:06:22;25.00;;;13.23;;
29730;SDS011;16639;51.488;0.152;2022-12-07T04:08:50;33.30;;;12.30;;
29730;SDS011;16639;51.488;0.152;2022-12-07T04:11:17;36.03;;;15.43;;
29730;SDS011;16639;51.488;0.152;2022-12-07T04:13:44;25.98;;;12.88;;
29730;SDS011;16639;51.488;0.152;2022-12-07T04:16:31;21.65;;;12.43;;
29730;SDS011;16639;51.488;0.152;2022-12-07T04:18:58;23.60;;;12.27;;
29730;SDS011;16639;51.488;0.152;2022-12-07T04:21:25;28.27;;;13.20;;
29730;SDS011;16639;51.488;0.152;2022-12-07T04:23:53;21.23;;;11.90;;
29730;SDS011;16639;51.488;0.152;2022-12-07T04:26:21;26.33;;;11.50;;
29730;SDS011;16639;51.488;0.152;2022-12-07T04:28:48;26.60;;;11.48;;
29730;SDS011;16639;51.488;0.152;2022-12-07T04:31:15;20.20;;;11.02;;
29730;SDS011;16639;51.488;0.152;2022-12-07T04:33:43;20.75;;;12.13;;
29730;SDS011;16639;51.488;0.152;2022-12-07T04:36:10;19.70;;;11.27;;
29730;SDS011;16639;51.488;0.152;2022-12-07T04:38:38;21.35;;;10.43;;
29730;SDS011;16639;51.488;0.152;2022-12-07T04:41:06;24.70;;;9.75;;
29730;SDS011;16639;51.488;0.152;2022-12-07T04:43:34;19.75;;;10.38;;
29730;SDS011;16639;51.488;0.152;2022-12-07T04:46:02;24.33;;;11.32;;
29730;SDS011;16639;51.488;0.152;2022-12-07T04:48:29;25.85;;;10.98;;
29730;SDS011;16639;51.488;0.152;2022-12-07T04:50:57;22.63;;;10.57;;
29730;SDS011;16639;51.488;0.152;2022-12-07T04:53:24;22.75;;;11.10;;
29730;SDS011;16639;51.488;0.152;2022-12-07T04:55:52;18.20;;;11.27;;
29730;SDS011;16639;51.488;0.152;2022-12-07T04:58:22;17.42;;;10.10;;
29730;SDS011;16639;51.488;0.152;2022-12-07T05:00:49;16.08;;;9.93;;
29730;SDS011;16639;51.488;0.152;2022-12-07T05:03:20;18.63;;;10.00;;
29730;SDS011;16639;51.488;0.152;2022-12-07T05:05:47;15.00;;;9.30;;
29730;SDS011;16639;51.488;0.152;2022-12-07T05:08:14;17.63;;;11.40;;
29730;SDS011;16639;51.488;0.152;2022-12-07T05:10:42;20.73;;;11.52;;
29730;SDS011;16639;51.488;0.152;2022-12-07T05:13:09;20.67;;;12.10;;
29730;SDS011;16639;51.488;0.152;2022-12-07T05:15:37;20.27;;;9.15;;
29730;SDS011;16639;51.488;0.152;2022-12-07T05:18:04;20.88;;;12.25;;
29730;SDS011;16639;51.488;0.152;2022-12-07T05:20:31;20.55;;;10.32;;
29730;SDS011;16639;51.488;0.152;2022-12-07T05:23:06;21.48;;;10.40;;
29730;SDS011;16639;51.488;0.152;2022-12-07T05:25:33;16.65;;;9.43;;
29730;SDS011;16639;51.488;0.152;2022-12-07T05:28:04;23.40;;;10.63;;
29730;SDS011;16639;51.488;0.152;2022-12-07T05:30:32;20.58;;;10.52;;
29730;SDS011;16639;51.488;0.152;2022-12-07T05:33:14;26.85;;;11.55;;
29730;SDS011;16639;51.488;0.152;2022-12-07T05:35:42;27.42;;;11.48;;
29730;SDS011;16639;51.488;0.152;2022-12-07T05:38:09;18.90;;;9.80;;
29730;SDS011;16639;51.488;0.152;2022-12-07T05:40:37;18.08;;;9.77;;
29730;SDS011;16639;51.488;0.152;2022-12-07T05:43:04;17.67;;;10.10;;
29730;SDS011;16639;51.488;0.152;2022-12-07T05:45:31;17.17;;;10.10;;
29730;SDS011;16639;51.488;0.152;2022-12-07T05:47:59;16.52;;;8.13;;
29730;SDS011;16639;51.488;0.152;2022-12-07T05:50:26;15.52;;;7.65;;
29730;SDS011;16639;51.488;0.152;2022-12-07T05:52:54;19.50;;;9.48;;
29730;SDS011;16639;51.488;0.152;2022-12-07T05:55:22;18.15;;;9.07;;
29730;SDS011;16639;51.488;0.152;2022-12-07T05:57:49;18.92;;;9.68;;
29730;SDS011;16639;51.488;0.152;2022-12-07T06:00:35;22.07;;;9.13;;
29730;SDS011;16639;51.488;0.152;2022-12-07T06:03:02;21.77;;;10.80;;
29730;SDS011;16639;51.488;0.152;2022-12-07T06:05:30;24.27;;;10.25;;
29730;SDS011;16639;51.488;0.152;2022-12-07T06:07:57;18.20;;;9.57;;
29730;SDS011;16639;51.488;0.152;2022-12-07T06:10:31;15.27;;;9.13;;
29730;SDS011;16639;51.488;0.152;2022-12-07T06:12:59;22.48;;;9.90;;
29730;SDS011;16639;51.488;0.152;2022-12-07T06:15:27;24.33;;;11.27;;
29730;SDS011;16639;51.488;0.152;2022-12-07T06:17:54;16.95;;;9.02;;
29730;SDS011;16639;51.488;0.152;2022-12-07T06:20:21;14.88;;;8.48;;
29730;SDS011;16639;51.488;0.152;2022-12-07T06:22:49;21.95;;;11.05;;
29730;SDS011;16639;51.488;0.152;2022-12-07T06:25:16;24.15;;;11.85;;
29730;SDS011;16639;51.488;0.152;2022-12-07T06:27:43;19.08;;;9.88;;
29730;SDS011;16639;51.488;0.152;2022-12-07T06:30:11;20.30;;;9.68;;
29730;SDS011;16639;51.488;0.152;2022-12-07T06:32:38;27.00;;;10.43;;
29730;SDS011;16639;51.488;0.152;2022-12-07T06:35:06;17.80;;;8.93;;
29730;SDS011;16639;51.488;0.152;2022-12-07T06:37:33;21.20;;;8.80;;
29730;SDS011;16639;51.488;0.152;2022-12-07T06:40:01;14.27;;;8.38;;
29730;SDS011;16639;51.488;0.152;2022-12-07T06:42:28;18.27;;;8.80;;
29730;SDS011;16639;51.488;0.152;2022-12-07T06:44:56;22.80;;;9.65;;
29730;SDS011;16639;51.488;0.152;2022-12-07T06:47:23;20.77;;;10.85;;
29730;SDS011;16639;51.488;0.152;2022-12-07T06:50:06;16.10;;;9.63;;
29730;SDS011;16639;51.488;0.152;2022-12-07T06:52:34;20.08;;;9.95;;
29730;SDS011;16639;51.488;0.152;2022-12-07T06:55:01;22.15;;;10.18;;
29730;SDS011;16639;51.488;0.152;2022-12-07T06:57:29;19.42;;;10.10;;
29730;SDS011;16639;51.488;0.152;2022-12-07T06:59:56;19.92;;;10.20;;
29730;SDS011;16639;51.488;0.152;2022-12-07T07:02:24;17.45;;;9.60;;
29730;SDS011;16639;51.488;0.152;2022-12-07T07:04:51;21.98;;;9.95;;
29730;SDS011;16639;51.488;0.152;2022-12-07T07:07:18;27.17;;;11.82;;
29730;SDS011;16639;51.488;0.152;2022-12-07T07:09:46;19.05;;;9.35;;
29730;SDS011;16639;51.488;0.152;2022-12-07T07:12:13;20.60;;;9.63;;
29730;SDS011;16639;51.488;0.152;2022-12-07T07:14:41;21.55;;;10.45;;
29730;SDS011;16639;51.488;0.152;2022-12-07T07:17:09;18.05;;;10.50;;
29730;SDS011;16639;51.488;0.152;2022-12-07T07:19:37;31.15;;;11.40;;
29730;SDS011;16639;51.488;0.152;2022-12-07T07:22:05;22.13;;;10.65;;
29730;SDS011;16639;51.488;0.152;2022-12-07T07:24:32;18.70;;;10.57;;
29730;SDS011;16639;51.488;0.152;2022-12-07T07:26:59;23.65;;;10.27;;
29730;SDS011;16639;51.488;0.152;2022-12-07T07:29:27;26.45;;;12.52;;
29730;SDS011;16639;51.488;0.152;2022-12-07T07:31:54;21.40;;;11.35;;
29730;SDS011;16639;51.488;0.152;2022-12-07T07:34:23;23.15;;;12.13;;
29730;SDS011;16639;51.488;0.152;2022-12-07T07:36:50;21.00;;;11.10;;
29730;SDS011;16639;51.488;0.152;2022-12-07T07:39:18;26.92;;;11.20;;
29730;SDS011;16639;51.488;0.152;2022-12-07T07:41:45;33.28;;;10.32;;
29730;SDS011;16639;51.488;0.152;2022-12-07T07:44:13;23.73;;;10.70;;
29730;SDS011;16639;51.488;0.152;2022-12-07T07:46:40;24.05;;;9.63;;
29730;SDS011;16639;51.488;0.152;2022-12-07T07:49:08;21.50;;;10.43;;
29730;SDS011;16639;51.488;0.152;2022-12-07T07:51:37;17.75;;;9.98;;
29730;SDS011;16639;51.488;0.152;2022-12-07T07:54:04;15.90;;;9.30;;
29730;SDS011;16639;51.488;0.152;2022-12-07T07:56:32;19.50;;;10.10;;
29730;SDS011;16639;51.488;0.152;2022-12-07T07:58:59;16.45;;;9.38;;
29730;SDS011;16639;51.488;0.152;2022-12-07T08:01:26;22.00;;;10.23;;
29730;SDS011;16639;51.488;0.152;2022-12-07T08:03:54;25.90;;;9.63;;
29730;SDS011;16639;51.488;0.152;2022-12-07T08:06:21;21.10;;;10.02;;
29730;SDS011;16639;51.488;0.152;2022-12-07T08:08:57;21.63;;;11.05;;
29730;SDS011;16639;51.488;0.152;2022-12-07T08:11:25;23.92;;;11.73;;
29730;SDS011;16639;51.488;0.152;2022-12-07T08:13:52;18.42;;;9.48;;
29730;SDS011;16639;51.488;0.152;2022-12-07T08:16:19;20.77;;;9.73;;
29730;SDS011;16639;51.488;0.152;2022-12-07T08:18:47;17.38;;;8.48;;
29730;SDS011;16639;51.488;0.152;2022-12-07T08:21:15;20.38;;;9.20;;
29730;SDS011;16639;51.488;0.152;2022-12-07T08:23:42;17.83;;;8.38;;
29730;SDS011;16639;51.488;0.152;2022-12-07T08:26:11;25.08;;;8.98;;
29730;SDS011;16639;51.488;0.152;2022-12-07T08:28:40;20.30;;;9.38;;
29730;SDS011;16639;51.488;0.152;2022-12-07T08:31:11;26.98;;;8.63;;
29730;SDS011;16639;51.488;0.152;2022-12-07T08:33:40;19.80;;;9.05;;
29730;SDS011;16639;51.488;0.152;2022-12-07T08:36:08;15.55;;;8.65;;
29730;SDS011;16639;51.488;0.152;2022-12-07T08:38:37;19.42;;;10.05;;
29730;SDS011;16639;51.488;0.152;2022-12-07T08:41:08;21.20;;;8.65;;
29730;SDS011;16639;51.488;0.152;2022-12-07T08:43:36;17.52;;;9.52;;
29730;SDS011;16639;51.488;0.152;2022-12-07T08:46:09;15.20;;;8.25;;
29730;SDS011;16639;51.488;0.152;2022-12-07T08:51:17;16.63;;;7.43;;
29730;SDS011;16639;51.488;0.152;2022-12-07T08:53:46;25.33;;;9.07;;
29730;SDS011;16639;51.488;0.152;2022-12-07T08:56:13;24.75;;;9.48;;
29730;SDS011;16639;51.488;0.152;2022-12-07T08:58:41;26.30;;;9.68;;
29730;SDS011;16639;51.488;0.152;2022-12-07T09:01:09;25.08;;;9.73;;
29730;SDS011;16639;51.488;0.152;2022-12-07T09:03:36;18.40;;;8.00;;
29730;SDS011;16639;51.488;0.152;2022-12-07T09:06:04;12.75;;;7.15;;
29730;SDS011;16639;51.488;0.152;2022-12-07T09:08:33;19.02;;;8.15;;
29730;SDS011;16639;51.488;0.152;2022-12-07T09:11:08;14.18;;;8.32;;
29730;SDS011;16639;51.488;0.152;2022-12-07T09:13:35;16.33;;;8.35;;
29730;SDS011;16639;51.488;0.152;2022-12-07T09:16:03;20.25;;;8.52;;
29730;SDS011;16639;51.488;0.152;2022-12-07T09:18:31;22.85;;;8.88;;
29730;SDS011;16639;51.488;0.152;2022-12-07T09:20:58;16.45;;;8.07;;
29730;SDS011;16639;51.488;0.152;2022-12-07T09:23:26;19.55;;;7.93;;
29730;SDS011;16639;51.488;0.152;2022-12-07T09:25:53;15.70;;;7.57;;
29730;SDS011;16639;51.488;0.152;2022-12-07T09:28:20;21.85;;;9.00;;
29730;SDS011;16639;51.488;0.152;2022-12-07T09:30:48;21.13;;;8.70;;
29730;SDS011;16639;51.488;0.152;2022-12-07T09:33:35;24.30;;;7.93;;
29730;SDS011;16639;51.488;0.152;2022-12-07T09:36:03;20.90;;;8.88;;
29730;SDS011;16639;51.488;0.152;2022-12-07T09:38:32;16.30;;;8.38;;
29730;SDS011;16639;51.488;0.152;2022-12-07T09:41:04;21.58;;;8.32;;
29730;SDS011;16639;51.488;0.152;2022-12-07T09:43:34;19.00;;;9.90;;
29730;SDS011;16639;51.488;0.152;2022-12-07T09:46:03;24.77;;;10.23;;
29730;SDS011;16639;51.488;0.152;2022-12-07T09:48:32;22.55;;;9.15;;
29730;SDS011;16639;51.488;0.152;2022-12-07T09:51:09;20.67;;;9.05;;
29730;SDS011;16639;51.488;0.152;2022-12-07T09:53:48;23.83;;;9.50;;
29730;SDS011;16639;51.488;0.152;2022-12-07T09:56:17;16.80;;;8.32;;
29730;SDS011;16639;51.488;0.152;2022-12-07T09:58:45;18.80;;;9.80;;
29730;SDS011;16639;51.488;0.152;2022-12-07T10:01:18;14.15;;;8.98;;
29730;SDS011;16639;51.488;0.152;2022-12-07T10:06:19;17.85;;;8.35;;
29730;SDS011;16639;51.488;0.152;2022-12-07T10:08:46;14.98;;;8.27;;
29730;SDS011;16639;51.488;0.152;2022-12-07T10:11:14;21.70;;;8.77;;
29730;SDS011;16639;51.488;0.152;2022-12-07T10:13:44;21.95;;;9.70;;
29730;SDS011;16639;51.488;0.152;2022-12-07T10:16:31;13.80;;;7.45;;
29730;SDS011;16639;51.488;0.152;2022-12-07T10:22:14;20.80;;;9.23;;
29730;SDS011;16639;51.488;0.152;2022-12-07T10:24:46;34.08;;;9.95;;
29730;SDS011;16639;51.488;0.152;2022-12-07T10:27:26;18.92;;;9.60;;
29730;SDS011;16639;51.488;0.152;2022-12-07T10:29:58;19.23;;;9.23;;
29730;SDS011;16639;51.488;0.152;2022-12-07T10:32:33;17.05;;;9.75;;
29730;SDS011;16639;51.488;0.152;2022-12-07T10:37:56;24.00;;;10.80;;
29730;SDS011;16639;51.488;0.152;2022-12-07T10:48:39;32.13;;;11.68;;
29730;SDS011;16639;51.488;0.152;2022-12-07T10:51:27;16.63;;;8.68;;
29730;SDS011;16639;51.488;0.152;2022-12-07T10:57:34;14.57;;;8.47;;
29730;SDS011;16639;51.488;0.152;2022-12-07T11:00:15;16.30;;;8.50;;
29730;SDS011;16639;51.488;0.152;2022-12-07T11:05:54;20.05;;;8.98;;
29730;SDS011;16639;51.488;0.152;2022-12-07T11:15:13;23.17;;;8.95;;
29730;SDS011;16639;51.488;0.152;2022-12-07T11:29:29;15.75;;;9.38;;
29730;SDS011;16639;51.488;0.152;2022-12-07T11:35:36;18.63;;;8.90;;
29730;SDS011;16639;51.488;0.152;2022-12-07T11:38:14;20.45;;;8.75;;
29730;SDS011;16639;51.488;0.152;2022-12-07T11:40:47;17.83;;;9.38;;
29730;SDS011;16639;51.488;0.152;2022-12-07T11:43:26;15.18;;;9.13;;
29730;SDS011;16639;51.488;0.152;2022-12-07T11:46:00;16.92;;;10.20;;
29730;SDS011;16639;51.488;0.152;2022-12-07T11:51:24;13.65;;;7.38;;
29730;SDS011;16639;51.488;0.152;2022-12-07T11:54:01;15.60;;;7.43;;
29730;SDS011;16639;51.488;0.152;2022-12-07T11:56:37;14.48;;;6.95;;
29730;SDS011;16639;51.488;0.152;2022-12-07T12:01:57;13.85;;;6.65;;
29730;SDS011;16639;51.488;0.152;2022-12-07T12:07:26;14.13;;;6.70;;
29730;SDS011;16639;51.488;0.152;2022-12-07T12:12:52;11.68;;;6.93;;
29730;SDS011;16639;51.488;0.152;2022-12-07T12:16:11;21.08;;;8.00;;
29730;SDS011;16639;51.488;0.152;2022-12-07T12:21:33;14.07;;;7.43;;
29730;SDS011;16639;51.488;0.152;2022-12-07T12:24:10;16.55;;;7.93;;
29730;SDS011;16639;51.488;0.152;2022-12-07T12:26:48;19.35;;;8.20;;
29730;SDS011;16639;51.488;0.152;2022-12-07T12:29:39;24.50;;;7.47;;
29730;SDS011;16639;51.488;0.152;2022-12-07T12:32:19;22.80;;;7.88;;
29730;SDS011;16639;51.488;0.152;2022-12-07T12:37:54;19.85;;;7.40;;
29730;SDS011;16639;51.488;0.152;2022-12-07T12:42:57;17.40;;;8.38;;
29730;SDS011;16639;51.488;0.152;2022-12-07T12:45:29;16.50;;;8.48;;
29730;SDS011;16639;51.488;0.152;2022-12-07T12:48:01;22.20;;;8.90;;
29730;SDS011;16639;51.488;0.152;2022-12-07T12:51:35;19.17;;;8.27;;
29730;SDS011;16639;51.488;0.152;2022-12-07T12:54:04;19.00;;;7.95;;
29730;SDS011;16639;51.488;0.152;2022-12-07T12:56:40;17.20;;;7.78;;
29730;SDS011;16639;51.488;0.152;2022-12-07T12:59:21;16.33;;;8.82;;
29730;SDS011;16639;51.488;0.152;2022-12-07T13:01:50;14.38;;;7.60;;
29730;SDS011;16639;51.488;0.152;2022-12-07T13:04:25;17.33;;;8.45;;
29730;SDS011;16639;51.488;0.152;2022-12-07T13:09:31;19.52;;;8.38;;
29730;SDS011;16639;51.488;0.152;2022-12-07T13:12:05;30.85;;;19.40;;
29730;SDS011;16639;51.488;0.152;2022-12-07T13:14:51;26.30;;;10.02;;
29730;SDS011;16639;51.488;0.152;2022-12-07T13:20:00;15.95;;;7.05;;
29730;SDS011;16639;51.488;0.152;2022-12-07T13:24:58;14.35;;;7.25;;
29730;SDS011;16639;51.488;0.152;2022-12-07T13:27:34;22.55;;;8.05;;
29730;SDS011;16639;51.488;0.152;2022-12-07T13:30:18;19.90;;;8.88;;
29730;SDS011;16639;51.488;0.152;2022-12-07T13:32:52;18.65;;;7.30;;
29730;SDS011;16639;51.488;0.152;2022-12-07T13:35:32;13.30;;;7.40;;
29730;SDS011;16639;51.488;0.152;2022-12-07T13:38:05;17.20;;;6.15;;
29730;SDS011;16639;51.488;0.152;2022-12-07T13:40:43;13.95;;;5.70;;
29730;SDS011;16639;51.488;0.152;2022-12-07T13:43:50;16.38;;;6.82;;
29730;SDS011;16639;51.488;0.152;2022-12-07T13:46:24;11.20;;;5.05;;
29730;SDS011;16639;51.488;0.152;2022-12-07T13:48:57;14.48;;;5.53;;
29730;SDS011;16639;51.488;0.152;2022-12-07T13:51:26;11.85;;;5.85;;
29730;SDS011;16639;51.488;0.152;2022-12-07T13:53:55;15.80;;;6.32;;
29730;SDS011;16639;51.488;0.152;2022-12-07T13:56:31;15.18;;;6.18;;
29730;SDS011;16639;51.488;0.152;2022-12-07T13:59:00;19.15;;;6.10;;
29730;SDS011;16639;51.488;0.152;2022-12-07T14:01:30;14.68;;;7.00;;
29730;SDS011;16639;51.488;0.152;2022-12-07T14:04:17;16.98;;;6.65;;
29730;SDS011;16639;51.488;0.152;2022-12-07T14:06:57;13.27;;;5.45;;
29730;SDS011;16639;51.488;0.152;2022-12-07T14:09:26;11.07;;;5.32;;
29730;SDS011;16639;51.488;0.152;2022-12-07T14:11:55;13.35;;;5.13;;
29730;SDS011;16639;51.488;0.152;2022-12-07T14:14:33;13.77;;;5.68;;
29730;SDS011;16639;51.488;0.152;2022-12-07T14:17:12;10.15;;;5.57;;
29730;SDS011;16639;51.488;0.152;2022-12-07T14:30:30;15.63;;;6.10;;
29730;SDS011;16639;51.488;0.152;2022-12-07T14:33:01;9.15;;;5.55;;
29730;SDS011;16639;51.488;0.152;2022-12-07T14:35:30;10.30;;;5.15;;
29730;SDS011;16639;51.488;0.152;2022-12-07T14:37:58;10.02;;;4.82;;
29730;SDS011;16639;51.488;0.152;2022-12-07T14:40:27;10.10;;;5.70;;
29730;SDS011;16639;51.488;0.152;2022-12-07T14:43:05;11.20;;;6.95;;
29730;SDS011;16639;51.488;0.152;2022-12-07T14:45:37;15.45;;;6.55;;
29730;SDS011;16639;51.488;0.152;2022-12-07T14:48:07;12.40;;;5.95;;
29730;SDS011;16639;51.488;0.152;2022-12-07T14:50:59;12.45;;;6.78;;
29730;SDS011;16639;51.488;0.152;2022-12-07T14:53:50;16.02;;;6.32;;
29730;SDS011;16639;51.488;0.152;2022-12-07T14:56:26;15.27;;;7.45;;
29730;SDS011;16639;51.488;0.152;2022-12-07T14:58:56;12.30;;;6.25;;
29730;SDS011;16639;51.488;0.152;2022-12-07T15:01:24;17.38;;;6.57;;
29730;SDS011;16639;51.488;0.152;2022-12-07T15:03:51;15.93;;;6.35;;
29730;SDS011;16639;51.488;0.152;2022-12-07T15:06:19;21.73;;;6.63;;
29730;SDS011;16639;51.488;0.152;2022-12-07T15:08:48;16.80;;;6.43;;
29730;SDS011;16639;51.488;0.152;2022-12-07T15:11:16;16.27;;;5.82;;
29730;SDS011;16639;51.488;0.152;2022-12-07T15:13:44;13.50;;;5.50;;
29730;SDS011;16639;51.488;0.152;2022-12-07T15:16:30;14.68;;;6.32;;
29730;SDS011;16639;51.488;0.152;2022-12-07T15:19:19;15.75;;;7.53;;
29730;SDS011;16639;51.488;0.152;2022-12-07T15:21:55;14.40;;;7.32;;
29730;SDS011;16639;51.488;0.152;2022-12-07T15:24:23;12.02;;;6.55;;
29730;SDS011;16639;51.488;0.152;2022-12-07T15:26:51;11.95;;;7.00;;
29730;SDS011;16639;51.488;0.152;2022-12-07T15:29:19;18.17;;;5.68;;
29730;SDS011;16639;51.488;0.152;2022-12-07T15:31:50;15.77;;;7.07;;
29730;SDS011;16639;51.488;0.152;2022-12-07T15:34:24;12.85;;;6.40;;
29730;SDS011;16639;51.488;0.152;2022-12-07T15:37:03;15.23;;;6.38;;
29730;SDS011;16639;51.488;0.152;2022-12-07T15:39:31;15.30;;;6.28;;
29730;SDS011;16639;51.488;0.152;2022-12-07T15:41:58;12.70;;;5.80;;
29730;SDS011;16639;51.488;0.152;2022-12-07T15:44:26;11.70;;;5.63;;
29730;SDS011;16639;51.488;0.152;2022-12-07T15:47:12;8.90;;;4.80;;
29730;SDS011;16639;51.488;0.152;2022-12-07T15:49:39;10.52;;;5.30;;
29730;SDS011;16639;51.488;0.152;2022-12-07T15:52:07;15.75;;;5.32;;
29730;SDS011;16639;51.488;0.152;2022-12-07T15:54:34;13.43;;;5.78;;
29730;SDS011;16639;51.488;0.152;2022-12-07T15:57:01;9.32;;;6.28;;
29730;SDS011;16639;51.488;0.152;2022-12-07T15:59:29;12.50;;;5.93;;
29730;SDS011;16639;51.488;0.152;2022-12-07T16:01:57;11.38;;;5.50;;
29730;SDS011;16639;51.488;0.152;2022-12-07T16:04:26;11.23;;;5.28;;
29730;SDS011;16639;51.488;0.152;2022-12-07T16:06:56;12.25;;;6.80;;
29730;SDS011;16639;51.488;0.152;2022-12-07T16:09:24;14.52;;;5.35;;
29730;SDS011;16639;51.488;0.152;2022-12-07T16:11:51;15.48;;;5.82;;
29730;SDS011;16639;51.488;0.152;2022-12-07T16:14:19;16.70;;;5.90;;
29730;SDS011;16639;51.488;0.152;2022-12-07T16:16:46;18.50;;;6.82;;
29730;SDS011;16639;51.488;0.152;2022-12-07T16:19:14;17.50;;;6.47;;
29730;SDS011;16639;51.488;0.152;2022-12-07T16:21:42;18.95;;;6.78;;
29730;SDS011;16639;51.488;0.152;2022-12-07T16:24:10;10.02;;;6.32;;
29730;SDS011;16639;51.488;0.152;2022-12-07T16:26:39;16.60;;;7.78;;
29730;SDS011;16639;51.488;0.152;2022-12-07T16:29:15;26.00;;;7.40;;
29730;SDS011;16639;51.488;0.152;2022-12-07T16:31:44;17.73;;;8.07;;
29730;SDS011;16639;51.488;0.152;2022-12-07T16:34:12;15.13;;;7.20;;
29730;SDS011;16639;51.488;0.152;2022-12-07T16:36:39;15.55;;;6.20;;
29730;SDS011;16639;51.488;0.152;2022-12-07T16:39:27;19.58;;;7.90;;
29730;SDS011;16639;51.488;0.152;2022-12-07T16:41:54;14.93;;;7.18;;
29730;SDS011;16639;51.488;0.152;2022-12-07T16:44:22;18.02;;;7.90;;
29730;SDS011;16639;51.488;0.152;2022-12-07T16:46:49;21.05;;;8.48;;
29730;SDS011;16639;51.488;0.152;2022-12-07T16:49:17;21.73;;;7.72;;
29730;SDS011;16639;51.488;0.152;2022-12-07T16:51:45;19.67;;;7.38;;
29730;SDS011;16639;51.488;0.152;2022-12-07T16:54:36;25.42;;;8.95;;
29730;SDS011;16639;51.488;0.152;2022-12-07T16:57:04;11.68;;;7.25;;
29730;SDS011;16639;51.488;0.152;2022-12-07T16:59:31;15.02;;;7.88;;
29730;SDS011;16639;51.488;0.152;2022-12-07T17:01:59;18.15;;;6.90;;
29730;SDS011;16639;51.488;0.152;2022-12-07T17:04:26;16.52;;;7.28;;
29730;SDS011;16639;51.488;0.152;2022-12-07T17:06:54;18.63;;;8.23;;
29730;SDS011;16639;51.488;0.152;2022-12-07T17:09:21;25.67;;;8.43;;